sensor_id;sensor_type;location;lat;lon;timestamp;P1;durP1;ratioP1;P2;durP2;ratioP2
6131;SDS011;3097;42.692;23.278;2022-12-20T00:00:46;11.73;;;7.37;;
6131;SDS011;3097;42.692;23.278;2022-12-20T00:03:12;13.67;;;6.70;;
6131;SDS011;3097;42.692;23.278;2022-12-20T00:05:40;11.60;;;6.57;;
6131;SDS011;3097;42.692;23.278;2022-12-20T00:08:07;13.93;;;6.43;;
6131;SDS011;3097;42.692;23.278;2022-12-20T00:10:40;12.70;;;6.17;;
6131;SDS011;3097;42.692;23.278;2022-12-20T00:13:09;18.50;;;7.03;;
6131;SDS011;3097;42.692;23.278;2022-12-20T00:15:35;13.17;;;6.63;;
6131;SDS011;3097;42.692;23.278;2022-12-20T00:18:00;13.40;;;6.83;;
6131;SDS011;3097;42.692;23.278;2022-12-20T00:20:26;13.10;;;6.57;;
6131;SDS011;3097;42.692;23.278;2022-12-20T00:22:53;15.80;;;7.67;;
6131;SDS011;3097;42.692;23.278;2022-12-20T00:25:18;13.53;;;6.93;;
6131;SDS011;3097;42.692;23.278;2022-12-20T00:27:45;9.83;;;6.00;;
6131;SDS011;3097;42.692;23.278;2022-12-20T00:30:11;13.93;;;6.47;;
6131;SDS011;3097;42.692;23.278;2022-12-20T00:32:37;10.40;;;5.93;;
6131;SDS011;3097;42.692;23.278;2022-12-20T00:35:02;12.73;;;6.80;;
6131;SDS011;3097;42.692;23.278;2022-12-20T00:37:28;12.70;;;5.83;;
6131;SDS011;3097;42.692;23.278;2022-12-20T00:39:53;10.77;;;5.97;;
6131;SDS011;3097;42.692;23.278;2022-12-20T00:42:19;14.67;;;6.70;;
6131;SDS011;3097;42.692;23.278;2022-12-20T00:44:44;15.50;;;6.80;;
6131;SDS011;3097;42.692;23.278;2022-12-20T00:47:10;12.13;;;5.23;;
6131;SDS011;3097;42.692;23.278;2022-12-20T00:49:35;10.07;;;5.37;;
6131;SDS011;3097;42.692;23.278;2022-12-20T00:52:01;10.83;;;6.13;;
6131;SDS011;3097;42.692;23.278;2022-12-20T00:54:26;11.17;;;5.57;;
6131;SDS011;3097;42.692;23.278;2022-12-20T00:56:51;7.77;;;5.60;;
6131;SDS011;3097;42.692;23.278;2022-12-20T00:59:17;11.00;;;5.63;;
6131;SDS011;3097;42.692;23.278;2022-12-20T01:01:42;10.67;;;6.00;;
6131;SDS011;3097;42.692;23.278;2022-12-20T01:04:08;7.63;;;5.00;;
6131;SDS011;3097;42.692;23.278;2022-12-20T01:06:33;9.43;;;5.30;;
6131;SDS011;3097;42.692;23.278;2022-12-20T01:08:59;11.50;;;5.53;;
6131;SDS011;3097;42.692;23.278;2022-12-20T01:11:26;10.37;;;6.50;;
6131;SDS011;3097;42.692;23.278;2022-12-20T01:13:54;9.80;;;6.10;;
6131;SDS011;3097;42.692;23.278;2022-12-20T01:19:16;11.40;;;5.53;;
6131;SDS011;3097;42.692;23.278;2022-12-20T01:21:43;10.80;;;4.27;;
6131;SDS011;3097;42.692;23.278;2022-12-20T01:24:18;9.73;;;4.90;;
6131;SDS011;3097;42.692;23.278;2022-12-20T01:26:44;8.97;;;5.17;;
6131;SDS011;3097;42.692;23.278;2022-12-20T01:29:10;9.73;;;5.20;;
6131;SDS011;3097;42.692;23.278;2022-12-20T01:31:36;10.37;;;5.33;;
6131;SDS011;3097;42.692;23.278;2022-12-20T01:34:01;8.67;;;5.33;;
6131;SDS011;3097;42.692;23.278;2022-12-20T01:36:31;11.17;;;5.83;;
6131;SDS011;3097;42.692;23.278;2022-12-20T01:39:03;16.77;;;5.90;;
6131;SDS011;3097;42.692;23.278;2022-12-20T01:41:30;12.10;;;5.60;;
6131;SDS011;3097;42.692;23.278;2022-12-20T01:43:58;9.63;;;5.60;;
6131;SDS011;3097;42.692;23.278;2022-12-20T01:46:27;10.27;;;4.83;;
6131;SDS011;3097;42.692;23.278;2022-12-20T01:51:22;7.67;;;4.77;;
6131;SDS011;3097;42.692;23.278;2022-12-20T01:53:49;8.03;;;4.70;;
6131;SDS011;3097;42.692;23.278;2022-12-20T01:56:18;10.67;;;5.47;;
6131;SDS011;3097;42.692;23.278;2022-12-20T01:58:44;10.20;;;5.77;;
6131;SDS011;3097;42.692;23.278;2022-12-20T02:01:12;10.37;;;5.27;;
6131;SDS011;3097;42.692;23.278;2022-12-20T02:03:38;9.97;;;5.13;;
6131;SDS011;3097;42.692;23.278;2022-12-20T02:06:18;10.90;;;5.03;;
6131;SDS011;3097;42.692;23.278;2022-12-20T02:08:45;12.07;;;4.70;;
6131;SDS011;3097;42.692;23.278;2022-12-20T02:13:49;8.40;;;4.67;;
6131;SDS011;3097;42.692;23.278;2022-12-20T02:16:22;13.67;;;6.27;;
6131;SDS011;3097;42.692;23.278;2022-12-20T02:18:54;10.67;;;5.20;;
6131;SDS011;3097;42.692;23.278;2022-12-20T02:32:19;10.93;;;6.20;;
6131;SDS011;3097;42.692;23.278;2022-12-20T02:34:50;9.80;;;5.60;;
6131;SDS011;3097;42.692;23.278;2022-12-20T02:37:16;10.17;;;5.70;;
6131;SDS011;3097;42.692;23.278;2022-12-20T02:39:42;9.63;;;5.33;;
6131;SDS011;3097;42.692;23.278;2022-12-20T02:42:11;12.63;;;5.43;;
6131;SDS011;3097;42.692;23.278;2022-12-20T02:44:40;7.27;;;4.57;;
6131;SDS011;3097;42.692;23.278;2022-12-20T02:50:17;10.50;;;5.20;;
6131;SDS011;3097;42.692;23.278;2022-12-20T02:52:47;12.17;;;5.33;;
6131;SDS011;3097;42.692;23.278;2022-12-20T02:55:15;9.20;;;5.03;;
6131;SDS011;3097;42.692;23.278;2022-12-20T02:57:55;9.33;;;5.73;;
6131;SDS011;3097;42.692;23.278;2022-12-20T03:00:26;10.77;;;5.63;;
6131;SDS011;3097;42.692;23.278;2022-12-20T03:02:58;6.43;;;5.20;;
6131;SDS011;3097;42.692;23.278;2022-12-20T03:05:44;11.20;;;5.80;;
6131;SDS011;3097;42.692;23.278;2022-12-20T03:08:11;8.57;;;5.17;;
6131;SDS011;3097;42.692;23.278;2022-12-20T03:10:37;10.40;;;5.23;;
6131;SDS011;3097;42.692;23.278;2022-12-20T03:13:02;10.83;;;6.20;;
6131;SDS011;3097;42.692;23.278;2022-12-20T03:15:28;10.13;;;5.97;;
6131;SDS011;3097;42.692;23.278;2022-12-20T03:17:54;9.67;;;5.60;;
6131;SDS011;3097;42.692;23.278;2022-12-20T03:20:19;11.87;;;5.93;;
6131;SDS011;3097;42.692;23.278;2022-12-20T03:22:45;13.23;;;6.67;;
6131;SDS011;3097;42.692;23.278;2022-12-20T03:25:10;10.33;;;5.83;;
6131;SDS011;3097;42.692;23.278;2022-12-20T03:27:36;12.17;;;6.27;;
6131;SDS011;3097;42.692;23.278;2022-12-20T03:30:02;13.40;;;6.27;;
6131;SDS011;3097;42.692;23.278;2022-12-20T03:32:28;12.37;;;7.20;;
6131;SDS011;3097;42.692;23.278;2022-12-20T03:34:54;14.43;;;6.87;;
6131;SDS011;3097;42.692;23.278;2022-12-20T03:37:19;16.77;;;6.07;;
6131;SDS011;3097;42.692;23.278;2022-12-20T03:39:44;14.43;;;7.60;;
6131;SDS011;3097;42.692;23.278;2022-12-20T03:42:10;15.47;;;7.40;;
6131;SDS011;3097;42.692;23.278;2022-12-20T03:44:35;12.17;;;6.13;;
6131;SDS011;3097;42.692;23.278;2022-12-20T03:47:01;12.53;;;5.63;;
6131;SDS011;3097;42.692;23.278;2022-12-20T03:49:26;11.23;;;6.10;;
6131;SDS011;3097;42.692;23.278;2022-12-20T03:51:51;11.80;;;6.30;;
6131;SDS011;3097;42.692;23.278;2022-12-20T03:54:17;14.20;;;6.57;;
6131;SDS011;3097;42.692;23.278;2022-12-20T03:56:42;10.30;;;5.60;;
6131;SDS011;3097;42.692;23.278;2022-12-20T03:59:08;15.03;;;6.73;;
6131;SDS011;3097;42.692;23.278;2022-12-20T04:01:33;18.40;;;7.87;;
6131;SDS011;3097;42.692;23.278;2022-12-20T04:04:01;12.73;;;5.87;;
6131;SDS011;3097;42.692;23.278;2022-12-20T04:06:27;11.63;;;6.97;;
6131;SDS011;3097;42.692;23.278;2022-12-20T04:08:52;15.13;;;7.23;;
6131;SDS011;3097;42.692;23.278;2022-12-20T04:11:18;21.40;;;9.87;;
6131;SDS011;3097;42.692;23.278;2022-12-20T04:13:47;12.10;;;7.13;;
6131;SDS011;3097;42.692;23.278;2022-12-20T04:16:15;15.27;;;7.47;;
6131;SDS011;3097;42.692;23.278;2022-12-20T04:18:42;11.80;;;6.57;;
6131;SDS011;3097;42.692;23.278;2022-12-20T04:21:08;12.70;;;6.20;;
6131;SDS011;3097;42.692;23.278;2022-12-20T04:23:35;14.20;;;6.57;;
6131;SDS011;3097;42.692;23.278;2022-12-20T04:26:03;18.00;;;8.03;;
6131;SDS011;3097;42.692;23.278;2022-12-20T04:28:30;31.67;;;8.23;;
6131;SDS011;3097;42.692;23.278;2022-12-20T04:30:56;21.83;;;9.80;;
6131;SDS011;3097;42.692;23.278;2022-12-20T04:33:22;16.87;;;7.20;;
6131;SDS011;3097;42.692;23.278;2022-12-20T04:35:48;16.33;;;7.43;;
6131;SDS011;3097;42.692;23.278;2022-12-20T04:38:14;13.70;;;7.30;;
6131;SDS011;3097;42.692;23.278;2022-12-20T04:40:40;18.10;;;7.93;;
6131;SDS011;3097;42.692;23.278;2022-12-20T04:43:06;20.73;;;9.83;;
6131;SDS011;3097;42.692;23.278;2022-12-20T04:45:32;12.07;;;7.53;;
6131;SDS011;3097;42.692;23.278;2022-12-20T04:47:58;16.13;;;7.10;;
6131;SDS011;3097;42.692;23.278;2022-12-20T04:50:23;17.57;;;8.20;;
6131;SDS011;3097;42.692;23.278;2022-12-20T04:52:48;14.37;;;7.83;;
6131;SDS011;3097;42.692;23.278;2022-12-20T04:55:39;13.60;;;7.40;;
6131;SDS011;3097;42.692;23.278;2022-12-20T04:58:05;12.93;;;7.50;;
6131;SDS011;3097;42.692;23.278;2022-12-20T05:00:31;11.50;;;7.00;;
6131;SDS011;3097;42.692;23.278;2022-12-20T05:02:57;11.83;;;6.93;;
6131;SDS011;3097;42.692;23.278;2022-12-20T05:05:22;13.23;;;7.20;;
6131;SDS011;3097;42.692;23.278;2022-12-20T05:07:48;11.43;;;6.47;;
6131;SDS011;3097;42.692;23.278;2022-12-20T05:10:14;10.57;;;6.17;;
6131;SDS011;3097;42.692;23.278;2022-12-20T05:12:40;13.37;;;6.97;;
6131;SDS011;3097;42.692;23.278;2022-12-20T05:15:05;13.30;;;7.70;;
6131;SDS011;3097;42.692;23.278;2022-12-20T05:17:32;11.90;;;7.03;;
6131;SDS011;3097;42.692;23.278;2022-12-20T05:19:58;18.10;;;7.90;;
6131;SDS011;3097;42.692;23.278;2022-12-20T05:22:23;15.07;;;7.40;;
6131;SDS011;3097;42.692;23.278;2022-12-20T05:25:08;18.27;;;7.83;;
6131;SDS011;3097;42.692;23.278;2022-12-20T05:27:53;16.47;;;7.77;;
6131;SDS011;3097;42.692;23.278;2022-12-20T05:30:18;12.60;;;6.97;;
6131;SDS011;3097;42.692;23.278;2022-12-20T05:32:44;14.27;;;7.27;;
6131;SDS011;3097;42.692;23.278;2022-12-20T05:35:09;17.33;;;8.50;;
6131;SDS011;3097;42.692;23.278;2022-12-20T05:37:35;14.53;;;7.53;;
6131;SDS011;3097;42.692;23.278;2022-12-20T05:40:00;17.53;;;8.60;;
6131;SDS011;3097;42.692;23.278;2022-12-20T05:42:26;17.93;;;9.17;;
6131;SDS011;3097;42.692;23.278;2022-12-20T05:44:51;18.17;;;8.00;;
6131;SDS011;3097;42.692;23.278;2022-12-20T05:47:16;14.83;;;7.57;;
6131;SDS011;3097;42.692;23.278;2022-12-20T05:49:42;16.40;;;8.53;;
6131;SDS011;3097;42.692;23.278;2022-12-20T05:52:07;22.30;;;10.70;;
6131;SDS011;3097;42.692;23.278;2022-12-20T05:54:33;19.03;;;10.23;;
6131;SDS011;3097;42.692;23.278;2022-12-20T05:56:58;17.97;;;9.00;;
6131;SDS011;3097;42.692;23.278;2022-12-20T05:59:24;19.30;;;8.90;;
6131;SDS011;3097;42.692;23.278;2022-12-20T06:01:49;23.13;;;8.50;;
6131;SDS011;3097;42.692;23.278;2022-12-20T06:04:14;16.63;;;6.83;;
6131;SDS011;3097;42.692;23.278;2022-12-20T06:06:40;14.53;;;8.33;;
6131;SDS011;3097;42.692;23.278;2022-12-20T06:09:05;13.43;;;7.60;;
6131;SDS011;3097;42.692;23.278;2022-12-20T06:11:31;16.03;;;7.47;;
6131;SDS011;3097;42.692;23.278;2022-12-20T06:13:56;16.80;;;7.63;;
6131;SDS011;3097;42.692;23.278;2022-12-20T06:16:22;16.47;;;7.53;;
6131;SDS011;3097;42.692;23.278;2022-12-20T06:18:47;17.97;;;8.07;;
6131;SDS011;3097;42.692;23.278;2022-12-20T06:21:14;23.07;;;7.67;;
6131;SDS011;3097;42.692;23.278;2022-12-20T06:23:39;16.50;;;8.30;;
6131;SDS011;3097;42.692;23.278;2022-12-20T06:26:05;19.17;;;8.90;;
6131;SDS011;3097;42.692;23.278;2022-12-20T06:28:33;16.30;;;7.97;;
6131;SDS011;3097;42.692;23.278;2022-12-20T06:30:59;16.23;;;7.93;;
6131;SDS011;3097;42.692;23.278;2022-12-20T06:33:24;14.67;;;8.37;;
6131;SDS011;3097;42.692;23.278;2022-12-20T06:35:50;16.53;;;7.53;;
6131;SDS011;3097;42.692;23.278;2022-12-20T06:38:16;17.30;;;8.60;;
6131;SDS011;3097;42.692;23.278;2022-12-20T06:40:42;16.80;;;8.33;;
6131;SDS011;3097;42.692;23.278;2022-12-20T06:43:07;16.60;;;7.70;;
6131;SDS011;3097;42.692;23.278;2022-12-20T06:45:33;15.00;;;7.83;;
6131;SDS011;3097;42.692;23.278;2022-12-20T06:47:58;17.30;;;8.20;;
6131;SDS011;3097;42.692;23.278;2022-12-20T06:50:24;14.83;;;7.73;;
6131;SDS011;3097;42.692;23.278;2022-12-20T06:52:49;17.83;;;8.70;;
6131;SDS011;3097;42.692;23.278;2022-12-20T06:55:15;14.60;;;7.10;;
6131;SDS011;3097;42.692;23.278;2022-12-20T06:57:41;17.60;;;7.97;;
6131;SDS011;3097;42.692;23.278;2022-12-20T07:00:07;19.80;;;8.83;;
6131;SDS011;3097;42.692;23.278;2022-12-20T07:02:34;15.73;;;7.60;;
6131;SDS011;3097;42.692;23.278;2022-12-20T07:05:00;15.97;;;6.90;;
6131;SDS011;3097;42.692;23.278;2022-12-20T07:07:25;12.03;;;7.50;;
6131;SDS011;3097;42.692;23.278;2022-12-20T07:09:51;15.07;;;8.20;;
6131;SDS011;3097;42.692;23.278;2022-12-20T07:12:16;12.03;;;6.83;;
6131;SDS011;3097;42.692;23.278;2022-12-20T07:14:42;15.60;;;7.27;;
6131;SDS011;3097;42.692;23.278;2022-12-20T07:17:07;14.80;;;7.13;;
6131;SDS011;3097;42.692;23.278;2022-12-20T07:19:33;17.33;;;7.47;;
6131;SDS011;3097;42.692;23.278;2022-12-20T07:22:00;13.50;;;7.43;;
6131;SDS011;3097;42.692;23.278;2022-12-20T07:24:27;16.17;;;7.63;;
6131;SDS011;3097;42.692;23.278;2022-12-20T07:26:52;15.40;;;6.73;;
6131;SDS011;3097;42.692;23.278;2022-12-20T07:29:17;12.20;;;6.73;;
6131;SDS011;3097;42.692;23.278;2022-12-20T07:31:43;11.83;;;7.23;;
6131;SDS011;3097;42.692;23.278;2022-12-20T07:34:08;17.63;;;7.97;;
6131;SDS011;3097;42.692;23.278;2022-12-20T07:36:34;13.97;;;7.10;;
6131;SDS011;3097;42.692;23.278;2022-12-20T07:39:00;14.37;;;7.13;;
6131;SDS011;3097;42.692;23.278;2022-12-20T07:41:25;16.57;;;8.47;;
6131;SDS011;3097;42.692;23.278;2022-12-20T07:43:51;16.13;;;7.30;;
6131;SDS011;3097;42.692;23.278;2022-12-20T07:46:17;15.60;;;6.87;;
6131;SDS011;3097;42.692;23.278;2022-12-20T07:48:42;13.23;;;7.20;;
6131;SDS011;3097;42.692;23.278;2022-12-20T07:51:10;15.17;;;6.97;;
6131;SDS011;3097;42.692;23.278;2022-12-20T07:53:41;14.73;;;7.40;;
6131;SDS011;3097;42.692;23.278;2022-12-20T07:56:10;19.80;;;8.57;;
6131;SDS011;3097;42.692;23.278;2022-12-20T07:58:38;17.63;;;7.90;;
6131;SDS011;3097;42.692;23.278;2022-12-20T08:01:05;14.93;;;7.37;;
6131;SDS011;3097;42.692;23.278;2022-12-20T08:03:36;15.63;;;7.80;;
6131;SDS011;3097;42.692;23.278;2022-12-20T08:06:06;16.40;;;8.43;;
6131;SDS011;3097;42.692;23.278;2022-12-20T08:08:33;15.60;;;8.13;;
6131;SDS011;3097;42.692;23.278;2022-12-20T08:11:02;15.43;;;8.50;;
6131;SDS011;3097;42.692;23.278;2022-12-20T08:13:28;14.60;;;7.63;;
6131;SDS011;3097;42.692;23.278;2022-12-20T08:15:56;14.67;;;7.23;;
6131;SDS011;3097;42.692;23.278;2022-12-20T08:18:22;14.57;;;7.90;;
6131;SDS011;3097;42.692;23.278;2022-12-20T08:20:48;13.63;;;7.03;;
6131;SDS011;3097;42.692;23.278;2022-12-20T08:23:13;12.10;;;7.17;;
6131;SDS011;3097;42.692;23.278;2022-12-20T08:25:39;14.90;;;7.50;;
6131;SDS011;3097;42.692;23.278;2022-12-20T08:28:05;14.17;;;7.03;;
6131;SDS011;3097;42.692;23.278;2022-12-20T08:30:30;13.07;;;6.53;;
6131;SDS011;3097;42.692;23.278;2022-12-20T08:32:56;14.07;;;6.97;;
6131;SDS011;3097;42.692;23.278;2022-12-20T08:35:21;16.17;;;7.40;;
6131;SDS011;3097;42.692;23.278;2022-12-20T08:37:47;18.47;;;8.27;;
6131;SDS011;3097;42.692;23.278;2022-12-20T08:40:14;19.20;;;8.50;;
6131;SDS011;3097;42.692;23.278;2022-12-20T08:42:40;17.03;;;7.90;;
6131;SDS011;3097;42.692;23.278;2022-12-20T08:45:05;12.47;;;7.47;;
6131;SDS011;3097;42.692;23.278;2022-12-20T08:47:31;19.50;;;7.67;;
6131;SDS011;3097;42.692;23.278;2022-12-20T08:49:56;19.40;;;8.37;;
6131;SDS011;3097;42.692;23.278;2022-12-20T08:52:22;13.70;;;8.07;;
6131;SDS011;3097;42.692;23.278;2022-12-20T08:54:47;20.73;;;8.47;;
6131;SDS011;3097;42.692;23.278;2022-12-20T08:57:13;17.80;;;8.87;;
6131;SDS011;3097;42.692;23.278;2022-12-20T08:59:38;14.70;;;7.77;;
6131;SDS011;3097;42.692;23.278;2022-12-20T09:02:04;14.40;;;7.27;;
6131;SDS011;3097;42.692;23.278;2022-12-20T09:04:30;14.53;;;7.40;;
6131;SDS011;3097;42.692;23.278;2022-12-20T09:06:56;16.23;;;7.90;;
6131;SDS011;3097;42.692;23.278;2022-12-20T09:09:21;13.20;;;8.00;;
6131;SDS011;3097;42.692;23.278;2022-12-20T09:11:47;19.03;;;7.97;;
6131;SDS011;3097;42.692;23.278;2022-12-20T09:14:12;15.17;;;8.07;;
6131;SDS011;3097;42.692;23.278;2022-12-20T09:16:38;13.73;;;7.97;;
6131;SDS011;3097;42.692;23.278;2022-12-20T09:19:03;16.53;;;8.10;;
6131;SDS011;3097;42.692;23.278;2022-12-20T09:21:29;14.43;;;7.63;;
6131;SDS011;3097;42.692;23.278;2022-12-20T09:23:55;13.93;;;7.63;;
6131;SDS011;3097;42.692;23.278;2022-12-20T09:26:22;13.63;;;7.23;;
6131;SDS011;3097;42.692;23.278;2022-12-20T09:28:48;13.17;;;7.77;;
6131;SDS011;3097;42.692;23.278;2022-12-20T09:31:16;14.33;;;7.87;;
6131;SDS011;3097;42.692;23.278;2022-12-20T09:33:43;14.17;;;8.17;;
6131;SDS011;3097;42.692;23.278;2022-12-20T09:36:11;11.90;;;7.63;;
6131;SDS011;3097;42.692;23.278;2022-12-20T09:38:41;20.60;;;9.77;;
6131;SDS011;3097;42.692;23.278;2022-12-20T09:41:08;14.00;;;8.40;;
6131;SDS011;3097;42.692;23.278;2022-12-20T09:47:10;13.07;;;7.30;;
6131;SDS011;3097;42.692;23.278;2022-12-20T09:49:43;14.53;;;7.50;;
6131;SDS011;3097;42.692;23.278;2022-12-20T09:52:21;15.50;;;7.93;;
6131;SDS011;3097;42.692;23.278;2022-12-20T10:00:47;12.97;;;7.50;;
6131;SDS011;3097;42.692;23.278;2022-12-20T10:03:21;11.00;;;6.63;;
6131;SDS011;3097;42.692;23.278;2022-12-20T10:06:05;11.27;;;6.43;;
6131;SDS011;3097;42.692;23.278;2022-12-20T10:08:55;13.77;;;8.03;;
6131;SDS011;3097;42.692;23.278;2022-12-20T10:22:27;18.63;;;6.70;;
6131;SDS011;3097;42.692;23.278;2022-12-20T10:27:40;11.70;;;6.80;;
6131;SDS011;3097;42.692;23.278;2022-12-20T10:30:24;11.87;;;6.77;;
6131;SDS011;3097;42.692;23.278;2022-12-20T10:32:52;18.67;;;8.13;;
6131;SDS011;3097;42.692;23.278;2022-12-20T10:37:58;13.73;;;6.73;;
6131;SDS011;3097;42.692;23.278;2022-12-20T10:40:33;14.30;;;7.50;;
6131;SDS011;3097;42.692;23.278;2022-12-20T10:43:01;14.57;;;7.67;;
6131;SDS011;3097;42.692;23.278;2022-12-20T10:45:35;15.40;;;7.40;;
6131;SDS011;3097;42.692;23.278;2022-12-20T10:48:21;16.03;;;7.80;;
6131;SDS011;3097;42.692;23.278;2022-12-20T10:50:54;16.67;;;8.37;;
6131;SDS011;3097;42.692;23.278;2022-12-20T10:53:23;11.13;;;7.40;;
6131;SDS011;3097;42.692;23.278;2022-12-20T10:55:51;16.40;;;8.60;;
6131;SDS011;3097;42.692;23.278;2022-12-20T11:01:15;14.77;;;8.07;;
6131;SDS011;3097;42.692;23.278;2022-12-20T11:04:25;16.27;;;8.37;;
6131;SDS011;3097;42.692;23.278;2022-12-20T11:06:45;12.53;;;7.23;;
6131;SDS011;3097;42.692;23.278;2022-12-20T11:09:11;13.27;;;7.57;;
6131;SDS011;3097;42.692;23.278;2022-12-20T11:11:57;13.10;;;7.00;;
6131;SDS011;3097;42.692;23.278;2022-12-20T11:14:37;12.73;;;7.27;;
6131;SDS011;3097;42.692;23.278;2022-12-20T11:17:27;18.17;;;6.93;;
6131;SDS011;3097;42.692;23.278;2022-12-20T11:25:30;21.53;;;9.00;;
6131;SDS011;3097;42.692;23.278;2022-12-20T11:34:00;16.47;;;8.90;;
6131;SDS011;3097;42.692;23.278;2022-12-20T11:39:25;14.00;;;7.27;;
6131;SDS011;3097;42.692;23.278;2022-12-20T11:42:04;13.87;;;7.67;;
6131;SDS011;3097;42.692;23.278;2022-12-20T11:47:46;12.40;;;6.80;;
6131;SDS011;3097;42.692;23.278;2022-12-20T11:53:15;16.13;;;7.23;;
6131;SDS011;3097;42.692;23.278;2022-12-20T11:55:52;11.33;;;6.33;;
6131;SDS011;3097;42.692;23.278;2022-12-20T11:58:29;11.23;;;6.60;;
6131;SDS011;3097;42.692;23.278;2022-12-20T12:01:03;13.27;;;7.70;;
6131;SDS011;3097;42.692;23.278;2022-12-20T12:03:40;13.67;;;7.33;;
6131;SDS011;3097;42.692;23.278;2022-12-20T12:06:16;14.23;;;7.17;;
6131;SDS011;3097;42.692;23.278;2022-12-20T12:09:05;14.57;;;8.30;;
6131;SDS011;3097;42.692;23.278;2022-12-20T12:11:36;24.10;;;11.23;;
6131;SDS011;3097;42.692;23.278;2022-12-20T12:14:08;20.03;;;10.70;;
6131;SDS011;3097;42.692;23.278;2022-12-20T12:16:43;21.57;;;10.57;;
6131;SDS011;3097;42.692;23.278;2022-12-20T12:19:15;17.20;;;8.77;;
6131;SDS011;3097;42.692;23.278;2022-12-20T12:27:40;12.80;;;7.60;;
6131;SDS011;3097;42.692;23.278;2022-12-20T12:29:59;12.27;;;7.83;;
6131;SDS011;3097;42.692;23.278;2022-12-20T12:43:47;17.63;;;9.57;;
6131;SDS011;3097;42.692;23.278;2022-12-20T12:48:55;21.07;;;10.33;;
6131;SDS011;3097;42.692;23.278;2022-12-20T12:51:36;24.27;;;12.00;;
6131;SDS011;3097;42.692;23.278;2022-12-20T12:56:47;18.10;;;10.50;;
6131;SDS011;3097;42.692;23.278;2022-12-20T12:59:22;19.63;;;10.40;;
6131;SDS011;3097;42.692;23.278;2022-12-20T13:04:29;22.80;;;10.27;;
6131;SDS011;3097;42.692;23.278;2022-12-20T13:07:25;33.67;;;13.67;;
6131;SDS011;3097;42.692;23.278;2022-12-20T13:09:57;12.27;;;7.90;;
6131;SDS011;3097;42.692;23.278;2022-12-20T13:15:47;11.57;;;6.87;;
6131;SDS011;3097;42.692;23.278;2022-12-20T13:18:00;11.57;;;6.97;;
6131;SDS011;3097;42.692;23.278;2022-12-20T13:20:41;9.23;;;6.07;;
6131;SDS011;3097;42.692;23.278;2022-12-20T13:25:53;8.80;;;6.57;;
6131;SDS011;3097;42.692;23.278;2022-12-20T13:33:21;16.47;;;9.03;;
6131;SDS011;3097;42.692;23.278;2022-12-20T13:38:50;13.13;;;7.17;;
6131;SDS011;3097;42.692;23.278;2022-12-20T13:41:37;12.63;;;6.90;;
6131;SDS011;3097;42.692;23.278;2022-12-20T13:49:24;11.60;;;7.40;;
6131;SDS011;3097;42.692;23.278;2022-12-20T13:54:45;12.83;;;7.87;;
6131;SDS011;3097;42.692;23.278;2022-12-20T13:57:16;16.43;;;7.53;;
6131;SDS011;3097;42.692;23.278;2022-12-20T13:59:47;15.73;;;8.00;;
6131;SDS011;3097;42.692;23.278;2022-12-20T14:02:23;13.13;;;7.30;;
6131;SDS011;3097;42.692;23.278;2022-12-20T14:04:57;11.33;;;7.13;;
6131;SDS011;3097;42.692;23.278;2022-12-20T14:07:26;11.93;;;7.43;;
6131;SDS011;3097;42.692;23.278;2022-12-20T14:09:55;18.17;;;7.23;;
6131;SDS011;3097;42.692;23.278;2022-12-20T14:12:22;16.70;;;7.93;;
6131;SDS011;3097;42.692;23.278;2022-12-20T14:14:48;18.07;;;7.13;;
6131;SDS011;3097;42.692;23.278;2022-12-20T14:19:43;13.03;;;7.90;;
6131;SDS011;3097;42.692;23.278;2022-12-20T14:22:09;15.70;;;8.27;;
6131;SDS011;3097;42.692;23.278;2022-12-20T14:24:38;15.23;;;8.00;;
6131;SDS011;3097;42.692;23.278;2022-12-20T14:27:09;18.07;;;8.17;;
6131;SDS011;3097;42.692;23.278;2022-12-20T14:29:37;16.93;;;8.23;;
6131;SDS011;3097;42.692;23.278;2022-12-20T14:32:04;16.27;;;8.77;;
6131;SDS011;3097;42.692;23.278;2022-12-20T14:34:30;20.50;;;9.33;;
6131;SDS011;3097;42.692;23.278;2022-12-20T14:39:53;23.67;;;9.53;;
6131;SDS011;3097;42.692;23.278;2022-12-20T14:42:26;17.47;;;9.27;;
6131;SDS011;3097;42.692;23.278;2022-12-20T14:45:17;23.00;;;10.27;;
6131;SDS011;3097;42.692;23.278;2022-12-20T14:47:48;19.13;;;8.30;;
6131;SDS011;3097;42.692;23.278;2022-12-20T14:50:19;14.47;;;8.97;;
6131;SDS011;3097;42.692;23.278;2022-12-20T14:52:50;25.77;;;10.87;;
6131;SDS011;3097;42.692;23.278;2022-12-20T14:55:17;25.70;;;11.03;;
6131;SDS011;3097;42.692;23.278;2022-12-20T14:57:45;20.03;;;9.77;;
6131;SDS011;3097;42.692;23.278;2022-12-20T15:13:40;12.03;;;5.87;;
6131;SDS011;3097;42.692;23.278;2022-12-20T15:16:20;11.87;;;6.67;;
6131;SDS011;3097;42.692;23.278;2022-12-20T15:18:49;28.80;;;11.73;;
6131;SDS011;3097;42.692;23.278;2022-12-20T15:21:17;12.20;;;7.63;;
6131;SDS011;3097;42.692;23.278;2022-12-20T15:23:48;11.80;;;6.80;;
6131;SDS011;3097;42.692;23.278;2022-12-20T15:26:16;10.00;;;6.20;;
6131;SDS011;3097;42.692;23.278;2022-12-20T15:28:43;15.43;;;6.97;;
6131;SDS011;3097;42.692;23.278;2022-12-20T15:31:10;13.90;;;6.93;;
6131;SDS011;3097;42.692;23.278;2022-12-20T15:33:37;11.83;;;6.90;;
6131;SDS011;3097;42.692;23.278;2022-12-20T15:36:04;16.13;;;8.07;;
6131;SDS011;3097;42.692;23.278;2022-12-20T15:38:30;10.17;;;6.93;;
6131;SDS011;3097;42.692;23.278;2022-12-20T15:40:59;11.37;;;6.93;;
6131;SDS011;3097;42.692;23.278;2022-12-20T15:43:28;11.60;;;6.27;;
6131;SDS011;3097;42.692;23.278;2022-12-20T15:46:02;10.47;;;6.00;;
6131;SDS011;3097;42.692;23.278;2022-12-20T15:48:27;14.40;;;6.20;;
6131;SDS011;3097;42.692;23.278;2022-12-20T15:50:55;7.23;;;5.00;;
6131;SDS011;3097;42.692;23.278;2022-12-20T15:53:40;8.73;;;5.93;;
6131;SDS011;3097;42.692;23.278;2022-12-20T15:56:07;7.70;;;5.20;;
6131;SDS011;3097;42.692;23.278;2022-12-20T15:58:41;8.10;;;5.43;;
6131;SDS011;3097;42.692;23.278;2022-12-20T16:01:08;8.63;;;5.27;;
6131;SDS011;3097;42.692;23.278;2022-12-20T16:03:37;6.67;;;5.13;;
6131;SDS011;3097;42.692;23.278;2022-12-20T16:06:02;7.73;;;4.93;;
6131;SDS011;3097;42.692;23.278;2022-12-20T16:08:28;5.70;;;4.43;;
6131;SDS011;3097;42.692;23.278;2022-12-20T16:10:54;7.47;;;5.03;;
6131;SDS011;3097;42.692;23.278;2022-12-20T16:13:21;10.47;;;5.50;;
6131;SDS011;3097;42.692;23.278;2022-12-20T16:15:49;7.10;;;4.33;;
6131;SDS011;3097;42.692;23.278;2022-12-20T16:18:15;11.60;;;5.23;;
6131;SDS011;3097;42.692;23.278;2022-12-20T16:20:41;7.80;;;4.73;;
6131;SDS011;3097;42.692;23.278;2022-12-20T16:23:11;9.43;;;5.30;;
6131;SDS011;3097;42.692;23.278;2022-12-20T16:25:40;11.30;;;5.90;;
6131;SDS011;3097;42.692;23.278;2022-12-20T16:28:06;10.50;;;6.40;;
6131;SDS011;3097;42.692;23.278;2022-12-20T16:30:31;14.07;;;5.40;;
6131;SDS011;3097;42.692;23.278;2022-12-20T16:32:57;10.10;;;5.73;;
6131;SDS011;3097;42.692;23.278;2022-12-20T16:35:25;9.60;;;6.33;;
6131;SDS011;3097;42.692;23.278;2022-12-20T16:37:53;13.77;;;6.90;;
6131;SDS011;3097;42.692;23.278;2022-12-20T16:40:26;14.40;;;7.13;;
6131;SDS011;3097;42.692;23.278;2022-12-20T16:42:54;13.17;;;7.30;;
6131;SDS011;3097;42.692;23.278;2022-12-20T16:45:26;17.27;;;7.50;;
6131;SDS011;3097;42.692;23.278;2022-12-20T16:47:57;30.10;;;9.23;;
6131;SDS011;3097;42.692;23.278;2022-12-20T16:50:23;27.40;;;10.83;;
6131;SDS011;3097;42.692;23.278;2022-12-20T16:52:50;54.30;;;15.23;;
6131;SDS011;3097;42.692;23.278;2022-12-20T16:55:21;37.23;;;14.60;;
6131;SDS011;3097;42.692;23.278;2022-12-20T16:57:48;38.83;;;14.87;;
6131;SDS011;3097;42.692;23.278;2022-12-20T17:00:20;32.60;;;14.10;;
6131;SDS011;3097;42.692;23.278;2022-12-20T17:02:49;38.17;;;16.07;;
6131;SDS011;3097;42.692;23.278;2022-12-20T17:07:54;45.87;;;19.63;;
6131;SDS011;3097;42.692;23.278;2022-12-20T17:10:20;46.53;;;20.20;;
6131;SDS011;3097;42.692;23.278;2022-12-20T17:12:47;47.40;;;21.33;;
6131;SDS011;3097;42.692;23.278;2022-12-20T17:15:14;50.87;;;21.00;;